sensor_id;sensor_type;location;lat;lon;timestamp;temperature;humidity
11532;DHT22;5822;51.000;5.874;2023-04-09T00:01:09;12.60;99.90
11532;DHT22;5822;51.000;5.874;2023-04-09T00:03:35;12.50;99.90
11532;DHT22;5822;51.000;5.874;2023-04-09T00:06:02;12.40;99.90
11532;DHT22;5822;51.000;5.874;2023-04-09T00:08:27;12.40;99.90
11532;DHT22;5822;51.000;5.874;2023-04-09T00:10:53;12.40;99.90
11532;DHT22;5822;51.000;5.874;2023-04-09T00:13:19;12.50;99.90
11532;DHT22;5822;51.000;5.874;2023-04-09T00:15:45;12.50;99.90
11532;DHT22;5822;51.000;5.874;2023-04-09T00:18:11;12.50;99.90
11532;DHT22;5822;51.000;5.874;2023-04-09T00:20:37;12.60;99.90
11532;DHT22;5822;51.000;5.874;2023-04-09T00:23:03;12.50;99.90
11532;DHT22;5822;51.000;5.874;2023-04-09T00:25:28;12.30;99.90
11532;DHT22;5822;51.000;5.874;2023-04-09T00:27:55;12.20;99.90
11532;DHT22;5822;51.000;5.874;2023-04-09T00:30:21;12.20;99.90
11532;DHT22;5822;51.000;5.874;2023-04-09T00:32:47;12.10;99.90
11532;DHT22;5822;51.000;5.874;2023-04-09T00:35:13;12.10;99.90
11532;DHT22;5822;51.000;5.874;2023-04-09T00:37:39;12.00;99.90
11532;DHT22;5822;51.000;5.874;2023-04-09T00:40:05;11.90;99.90
11532;DHT22;5822;51.000;5.874;2023-04-09T00:42:32;11.90;99.90
11532;DHT22;5822;51.000;5.874;2023-04-09T00:44:58;11.90;99.90
11532;DHT22;5822;51.000;5.874;2023-04-09T00:47:24;11.90;99.90
11532;DHT22;5822;51.000;5.874;2023-04-09T00:49:50;11.90;99.90
11532;DHT22;5822;51.000;5.874;2023-04-09T00:52:16;11.90;99.90
11532;DHT22;5822;51.000;5.874;2023-04-09T00:54:41;11.80;99.90
11532;DHT22;5822;51.000;5.874;2023-04-09T00:57:07;11.80;99.90
11532;DHT22;5822;51.000;5.874;2023-04-09T00:59:33;11.70;99.90
11532;DHT22;5822;51.000;5.874;2023-04-09T01:01:58;11.50;99.90
11532;DHT22;5822;51.000;5.874;2023-04-09T01:04:24;11.50;99.90
11532;DHT22;5822;51.000;5.874;2023-04-09T01:06:52;11.40;99.90
11532;DHT22;5822;51.000;5.874;2023-04-09T01:09:27;11.40;99.90
11532;DHT22;5822;51.000;5.874;2023-04-09T01:12:20;11.40;99.90
11532;DHT22;5822;51.000;5.874;2023-04-09T01:15:04;11.30;99.90
11532;DHT22;5822;51.000;5.874;2023-04-09T01:17:34;11.30;99.90
11532;DHT22;5822;51.000;5.874;2023-04-09T01:22:31;11.20;99.90
11532;DHT22;5822;51.000;5.874;2023-04-09T01:28:14;11.10;99.90
11532;DHT22;5822;51.000;5.874;2023-04-09T01:30:47;11.00;99.90
11532;DHT22;5822;51.000;5.874;2023-04-09T01:33:14;11.00;99.90
11532;DHT22;5822;51.000;5.874;2023-04-09T01:35:44;10.90;99.90
11532;DHT22;5822;51.000;5.874;2023-04-09T01:38:12;10.90;99.90
11532;DHT22;5822;51.000;5.874;2023-04-09T01:40:38;10.90;99.90
11532;DHT22;5822;51.000;5.874;2023-04-09T01:43:05;11.00;99.90
11532;DHT22;5822;51.000;5.874;2023-04-09T01:45:33;11.10;99.90
11532;DHT22;5822;51.000;5.874;2023-04-09T01:47:59;11.10;99.90
11532;DHT22;5822;51.000;5.874;2023-04-09T01:50:26;11.10;99.90
11532;DHT22;5822;51.000;5.874;2023-04-09T01:52:51;11.00;99.90
11532;DHT22;5822;51.000;5.874;2023-04-09T01:55:17;10.90;99.90
11532;DHT22;5822;51.000;5.874;2023-04-09T01:57:43;10.80;99.90
11532;DHT22;5822;51.000;5.874;2023-04-09T02:00:09;10.80;99.90
11532;DHT22;5822;51.000;5.874;2023-04-09T02:02:50;10.70;99.90
11532;DHT22;5822;51.000;5.874;2023-04-09T02:05:18;10.70;99.90
11532;DHT22;5822;51.000;5.874;2023-04-09T02:07:54;10.70;99.90
11532;DHT22;5822;51.000;5.874;2023-04-09T02:10:25;10.70;99.90
11532;DHT22;5822;51.000;5.874;2023-04-09T02:12:51;10.60;99.90
11532;DHT22;5822;51.000;5.874;2023-04-09T02:15:19;10.60;99.90
11532;DHT22;5822;51.000;5.874;2023-04-09T02:17:46;10.60;99.90
11532;DHT22;5822;51.000;5.874;2023-04-09T02:20:16;10.50;99.90
11532;DHT22;5822;51.000;5.874;2023-04-09T02:22:42;10.50;99.90
11532;DHT22;5822;51.000;5.874;2023-04-09T02:25:07;10.60;99.90
11532;DHT22;5822;51.000;5.874;2023-04-09T02:27:33;10.50;99.90
11532;DHT22;5822;51.000;5.874;2023-04-09T02:29:59;10.50;99.90
11532;DHT22;5822;51.000;5.874;2023-04-09T02:32:24;10.50;99.90
11532;DHT22;5822;51.000;5.874;2023-04-09T02:34:50;10.60;99.90
11532;DHT22;5822;51.000;5.874;2023-04-09T02:37:16;10.60;99.90
11532;DHT22;5822;51.000;5.874;2023-04-09T02:39:42;10.60;99.90
11532;DHT22;5822;51.000;5.874;2023-04-09T02:42:08;10.60;99.90
11532;DHT22;5822;51.000;5.874;2023-04-09T02:44:34;10.60;99.90
11532;DHT22;5822;51.000;5.874;2023-04-09T02:46:59;10.60;99.90
11532;DHT22;5822;51.000;5.874;2023-04-09T02:49:25;10.60;99.90
11532;DHT22;5822;51.000;5.874;2023-04-09T02:51:51;10.60;99.90
11532;DHT22;5822;51.000;5.874;2023-04-09T02:54:16;10.70;99.90
11532;DHT22;5822;51.000;5.874;2023-04-09T02:56:42;10.80;99.90
11532;DHT22;5822;51.000;5.874;2023-04-09T02:59:08;10.80;99.90
11532;DHT22;5822;51.000;5.874;2023-04-09T03:01:33;10.70;99.90
11532;DHT22;5822;51.000;5.874;2023-04-09T03:04:00;10.70;99.90
11532;DHT22;5822;51.000;5.874;2023-04-09T03:06:26;10.60;99.90
11532;DHT22;5822;51.000;5.874;2023-04-09T03:08:51;10.40;99.90
11532;DHT22;5822;51.000;5.874;2023-04-09T03:11:17;10.40;99.90
11532;DHT22;5822;51.000;5.874;2023-04-09T03:13:43;10.30;99.90
11532;DHT22;5822;51.000;5.874;2023-04-09T03:16:08;10.20;99.90
11532;DHT22;5822;51.000;5.874;2023-04-09T03:18:35;10.20;99.90
11532;DHT22;5822;51.000;5.874;2023-04-09T03:21:05;10.20;99.90
11532;DHT22;5822;51.000;5.874;2023-04-09T03:23:32;10.20;99.90
11532;DHT22;5822;51.000;5.874;2023-04-09T03:26:03;10.10;99.90
11532;DHT22;5822;51.000;5.874;2023-04-09T03:28:29;10.20;99.90
11532;DHT22;5822;51.000;5.874;2023-04-09T03:30:55;10.20;99.90
11532;DHT22;5822;51.000;5.874;2023-04-09T03:33:21;10.30;99.90
11532;DHT22;5822;51.000;5.874;2023-04-09T03:35:46;10.30;99.90
11532;DHT22;5822;51.000;5.874;2023-04-09T03:38:12;10.50;99.90
11532;DHT22;5822;51.000;5.874;2023-04-09T03:40:38;10.60;99.90
11532;DHT22;5822;51.000;5.874;2023-04-09T03:43:04;10.70;99.90
11532;DHT22;5822;51.000;5.874;2023-04-09T03:45:30;10.80;99.90
11532;DHT22;5822;51.000;5.874;2023-04-09T03:47:55;10.60;99.90
11532;DHT22;5822;51.000;5.874;2023-04-09T03:50:21;10.50;99.90
11532;DHT22;5822;51.000;5.874;2023-04-09T03:52:46;10.60;99.90
11532;DHT22;5822;51.000;5.874;2023-04-09T03:55:12;10.70;99.90
11532;DHT22;5822;51.000;5.874;2023-04-09T03:57:38;10.80;99.90
11532;DHT22;5822;51.000;5.874;2023-04-09T04:00:04;10.90;99.90
11532;DHT22;5822;51.000;5.874;2023-04-09T04:02:30;10.90;99.90
11532;DHT22;5822;51.000;5.874;2023-04-09T04:04:58;10.90;99.90
11532;DHT22;5822;51.000;5.874;2023-04-09T04:07:24;10.90;99.90
11532;DHT22;5822;51.000;5.874;2023-04-09T04:09:50;10.90;99.90
11532;DHT22;5822;51.000;5.874;2023-04-09T04:12:15;10.80;99.90
11532;DHT22;5822;51.000;5.874;2023-04-09T04:14:41;10.80;99.90
11532;DHT22;5822;51.000;5.874;2023-04-09T04:17:06;10.70;99.90
11532;DHT22;5822;51.000;5.874;2023-04-09T04:19:32;10.70;99.90
11532;DHT22;5822;51.000;5.874;2023-04-09T04:21:58;10.70;99.90
11532;DHT22;5822;51.000;5.874;2023-04-09T04:24:23;10.80;99.90
11532;DHT22;5822;51.000;5.874;2023-04-09T04:26:49;10.80;99.90
11532;DHT22;5822;51.000;5.874;2023-04-09T04:29:15;10.80;99.90
11532;DHT22;5822;51.000;5.874;2023-04-09T04:31:40;10.80;99.90
11532;DHT22;5822;51.000;5.874;2023-04-09T04:34:06;10.80;99.90
11532;DHT22;5822;51.000;5.874;2023-04-09T04:36:32;10.80;99.90
11532;DHT22;5822;51.000;5.874;2023-04-09T04:38:57;10.70;99.90
11532;DHT22;5822;51.000;5.874;2023-04-09T04:41:23;10.60;99.90
11532;DHT22;5822;51.000;5.874;2023-04-09T04:43:49;10.60;99.90
11532;DHT22;5822;51.000;5.874;2023-04-09T04:46:14;10.60;99.90
11532;DHT22;5822;51.000;5.874;2023-04-09T04:48:40;10.60;99.90
11532;DHT22;5822;51.000;5.874;2023-04-09T04:51:06;10.40;99.90
11532;DHT22;5822;51.000;5.874;2023-04-09T04:53:31;10.40;99.90
11532;DHT22;5822;51.000;5.874;2023-04-09T04:55:57;10.40;99.90
11532;DHT22;5822;51.000;5.874;2023-04-09T04:58:23;10.50;99.90
11532;DHT22;5822;51.000;5.874;2023-04-09T05:00:49;10.40;99.90
11532;DHT22;5822;51.000;5.874;2023-04-09T05:03:15;10.30;99.90
11532;DHT22;5822;51.000;5.874;2023-04-09T05:05:41;10.30;99.90
11532;DHT22;5822;51.000;5.874;2023-04-09T05:08:06;10.40;99.90
11532;DHT22;5822;51.000;5.874;2023-04-09T05:10:32;10.40;99.90
11532;DHT22;5822;51.000;5.874;2023-04-09T05:12:58;10.40;99.90
11532;DHT22;5822;51.000;5.874;2023-04-09T05:15:23;10.30;99.90
11532;DHT22;5822;51.000;5.874;2023-04-09T05:17:49;10.40;99.90
11532;DHT22;5822;51.000;5.874;2023-04-09T05:20:15;10.40;99.90
11532;DHT22;5822;51.000;5.874;2023-04-09T05:22:41;10.30;99.90
11532;DHT22;5822;51.000;5.874;2023-04-09T05:25:07;10.20;99.90
11532;DHT22;5822;51.000;5.874;2023-04-09T05:27:32;10.00;99.90
11532;DHT22;5822;51.000;5.874;2023-04-09T05:29:58;10.00;99.90
11532;DHT22;5822;51.000;5.874;2023-04-09T05:32:24;10.10;99.90
11532;DHT22;5822;51.000;5.874;2023-04-09T05:34:49;10.20;99.90
11532;DHT22;5822;51.000;5.874;2023-04-09T05:37:15;10.10;99.90
11532;DHT22;5822;51.000;5.874;2023-04-09T05:39:41;10.00;99.90
11532;DHT22;5822;51.000;5.874;2023-04-09T05:42:06;9.90;99.90
11532;DHT22;5822;51.000;5.874;2023-04-09T05:44:32;9.80;99.90
11532;DHT22;5822;51.000;5.874;2023-04-09T05:46:58;9.80;99.90
11532;DHT22;5822;51.000;5.874;2023-04-09T05:49:23;9.80;99.90
11532;DHT22;5822;51.000;5.874;2023-04-09T05:51:50;9.80;99.90
11532;DHT22;5822;51.000;5.874;2023-04-09T05:54:16;9.80;99.90
11532;DHT22;5822;51.000;5.874;2023-04-09T05:56:42;9.80;99.90
11532;DHT22;5822;51.000;5.874;2023-04-09T05:59:07;9.70;99.90
11532;DHT22;5822;51.000;5.874;2023-04-09T06:01:33;9.80;99.90
11532;DHT22;5822;51.000;5.874;2023-04-09T06:03:58;9.90;99.90
11532;DHT22;5822;51.000;5.874;2023-04-09T06:06:24;9.90;99.90
11532;DHT22;5822;51.000;5.874;2023-04-09T06:08:50;9.90;99.90
11532;DHT22;5822;51.000;5.874;2023-04-09T06:11:16;9.90;99.90
11532;DHT22;5822;51.000;5.874;2023-04-09T06:13:42;9.90;99.90
11532;DHT22;5822;51.000;5.874;2023-04-09T06:16:08;9.90;99.90
11532;DHT22;5822;51.000;5.874;2023-04-09T06:18:36;10.00;99.90
11532;DHT22;5822;51.000;5.874;2023-04-09T06:21:03;10.00;99.90
11532;DHT22;5822;51.000;5.874;2023-04-09T06:23:29;10.10;99.90
11532;DHT22;5822;51.000;5.874;2023-04-09T06:25:54;10.30;99.90
11532;DHT22;5822;51.000;5.874;2023-04-09T06:28:20;10.30;99.90
11532;DHT22;5822;51.000;5.874;2023-04-09T06:30:46;10.40;99.90
11532;DHT22;5822;51.000;5.874;2023-04-09T06:33:11;10.50;99.90
11532;DHT22;5822;51.000;5.874;2023-04-09T06:35:37;10.50;99.90
11532;DHT22;5822;51.000;5.874;2023-04-09T06:38:03;10.60;99.90
11532;DHT22;5822;51.000;5.874;2023-04-09T06:40:31;10.60;99.90
11532;DHT22;5822;51.000;5.874;2023-04-09T06:42:56;10.60;99.90
11532;DHT22;5822;51.000;5.874;2023-04-09T06:45:22;10.70;99.90
11532;DHT22;5822;51.000;5.874;2023-04-09T06:47:48;10.70;99.90
11532;DHT22;5822;51.000;5.874;2023-04-09T06:50:14;10.70;99.90
11532;DHT22;5822;51.000;5.874;2023-04-09T06:52:40;10.70;99.90
11532;DHT22;5822;51.000;5.874;2023-04-09T06:55:06;10.80;99.90
11532;DHT22;5822;51.000;5.874;2023-04-09T06:57:32;10.80;99.90
11532;DHT22;5822;51.000;5.874;2023-04-09T06:59:57;10.80;99.90
11532;DHT22;5822;51.000;5.874;2023-04-09T07:02:23;10.70;99.90
11532;DHT22;5822;51.000;5.874;2023-04-09T07:04:49;10.70;99.90
11532;DHT22;5822;51.000;5.874;2023-04-09T07:07:14;10.70;99.90
11532;DHT22;5822;51.000;5.874;2023-04-09T07:09:41;10.70;99.90
11532;DHT22;5822;51.000;5.874;2023-04-09T07:12:07;10.70;99.90
11532;DHT22;5822;51.000;5.874;2023-04-09T07:14:32;10.80;99.90
11532;DHT22;5822;51.000;5.874;2023-04-09T07:16:58;10.90;99.90
11532;DHT22;5822;51.000;5.874;2023-04-09T07:19:24;11.00;99.90
11532;DHT22;5822;51.000;5.874;2023-04-09T07:21:49;11.10;99.90
11532;DHT22;5822;51.000;5.874;2023-04-09T07:24:15;11.10;99.90
11532;DHT22;5822;51.000;5.874;2023-04-09T07:26:40;11.20;99.90
11532;DHT22;5822;51.000;5.874;2023-04-09T07:29:07;11.30;99.90
11532;DHT22;5822;51.000;5.874;2023-04-09T07:31:32;11.40;99.90
11532;DHT22;5822;51.000;5.874;2023-04-09T07:33:58;11.50;99.90
11532;DHT22;5822;51.000;5.874;2023-04-09T07:36:23;11.60;99.90
11532;DHT22;5822;51.000;5.874;2023-04-09T07:38:50;11.60;99.90
11532;DHT22;5822;51.000;5.874;2023-04-09T07:41:15;11.70;99.90
11532;DHT22;5822;51.000;5.874;2023-04-09T07:43:41;11.70;99.90
11532;DHT22;5822;51.000;5.874;2023-04-09T07:46:07;11.80;99.90
11532;DHT22;5822;51.000;5.874;2023-04-09T07:48:33;11.80;99.90
11532;DHT22;5822;51.000;5.874;2023-04-09T07:50:58;11.80;99.90
11532;DHT22;5822;51.000;5.874;2023-04-09T07:53:24;11.80;99.90
11532;DHT22;5822;51.000;5.874;2023-04-09T07:55:50;11.80;99.90
11532;DHT22;5822;51.000;5.874;2023-04-09T07:58:16;11.80;99.90
11532;DHT22;5822;51.000;5.874;2023-04-09T08:00:42;11.90;99.90
11532;DHT22;5822;51.000;5.874;2023-04-09T08:03:08;12.00;99.90
11532;DHT22;5822;51.000;5.874;2023-04-09T08:05:34;12.00;99.90
11532;DHT22;5822;51.000;5.874;2023-04-09T08:08:00;12.00;99.90
11532;DHT22;5822;51.000;5.874;2023-04-09T08:10:26;12.10;99.90
11532;DHT22;5822;51.000;5.874;2023-04-09T08:12:52;12.10;99.90
11532;DHT22;5822;51.000;5.874;2023-04-09T08:15:18;12.10;99.90
11532;DHT22;5822;51.000;5.874;2023-04-09T08:17:44;12.10;99.90
11532;DHT22;5822;51.000;5.874;2023-04-09T08:20:11;12.10;99.90
11532;DHT22;5822;51.000;5.874;2023-04-09T08:22:37;12.10;99.90
11532;DHT22;5822;51.000;5.874;2023-04-09T08:25:02;12.20;99.90
11532;DHT22;5822;51.000;5.874;2023-04-09T08:27:28;12.20;99.90
11532;DHT22;5822;51.000;5.874;2023-04-09T08:29:54;12.20;99.90
11532;DHT22;5822;51.000;5.874;2023-04-09T08:32:19;12.30;99.90
11532;DHT22;5822;51.000;5.874;2023-04-09T08:34:45;12.30;99.90
11532;DHT22;5822;51.000;5.874;2023-04-09T08:37:11;12.30;99.90
11532;DHT22;5822;51.000;5.874;2023-04-09T08:39:37;12.20;99.90
11532;DHT22;5822;51.000;5.874;2023-04-09T08:42:05;12.20;99.90
11532;DHT22;5822;51.000;5.874;2023-04-09T08:44:31;12.30;99.90
11532;DHT22;5822;51.000;5.874;2023-04-09T08:46:58;12.40;99.90
11532;DHT22;5822;51.000;5.874;2023-04-09T08:49:24;12.40;99.90
11532;DHT22;5822;51.000;5.874;2023-04-09T08:51:50;12.50;99.90
11532;DHT22;5822;51.000;5.874;2023-04-09T08:54:17;12.50;99.90
11532;DHT22;5822;51.000;5.874;2023-04-09T08:56:47;12.50;99.90
11532;DHT22;5822;51.000;5.874;2023-04-09T08:59:16;12.50;99.90
11532;DHT22;5822;51.000;5.874;2023-04-09T09:01:44;12.60;99.90
11532;DHT22;5822;51.000;5.874;2023-04-09T09:04:12;12.60;99.90
11532;DHT22;5822;51.000;5.874;2023-04-09T09:06:39;12.50;99.90
11532;DHT22;5822;51.000;5.874;2023-04-09T09:09:12;12.50;99.90
11532;DHT22;5822;51.000;5.874;2023-04-09T09:11:42;12.50;99.90
11532;DHT22;5822;51.000;5.874;2023-04-09T09:14:12;12.60;99.90
11532;DHT22;5822;51.000;5.874;2023-04-09T09:16:40;12.60;99.90
11532;DHT22;5822;51.000;5.874;2023-04-09T09:19:26;12.70;99.90
11532;DHT22;5822;51.000;5.874;2023-04-09T09:22:00;12.70;99.90
11532;DHT22;5822;51.000;5.874;2023-04-09T09:24:26;12.70;99.90
11532;DHT22;5822;51.000;5.874;2023-04-09T09:26:52;12.80;99.90
11532;DHT22;5822;51.000;5.874;2023-04-09T09:29:19;12.80;99.90
11532;DHT22;5822;51.000;5.874;2023-04-09T09:31:50;12.80;99.90
11532;DHT22;5822;51.000;5.874;2023-04-09T09:34:18;13.00;99.90
11532;DHT22;5822;51.000;5.874;2023-04-09T09:36:44;12.80;99.90
11532;DHT22;5822;51.000;5.874;2023-04-09T09:39:11;12.90;99.90
11532;DHT22;5822;51.000;5.874;2023-04-09T09:41:40;12.90;99.90
11532;DHT22;5822;51.000;5.874;2023-04-09T09:44:07;13.00;99.90
11532;DHT22;5822;51.000;5.874;2023-04-09T09:46:35;13.00;99.90
11532;DHT22;5822;51.000;5.874;2023-04-09T09:49:02;13.10;99.90
11532;DHT22;5822;51.000;5.874;2023-04-09T09:51:31;13.20;99.90
11532;DHT22;5822;51.000;5.874;2023-04-09T09:53:57;13.20;99.90
11532;DHT22;5822;51.000;5.874;2023-04-09T09:56:29;13.30;99.90
11532;DHT22;5822;51.000;5.874;2023-04-09T10:01:32;13.40;99.90
11532;DHT22;5822;51.000;5.874;2023-04-09T10:04:00;13.50;99.90
11532;DHT22;5822;51.000;5.874;2023-04-09T10:06:27;13.60;99.90
11532;DHT22;5822;51.000;5.874;2023-04-09T10:08:56;13.60;99.90
11532;DHT22;5822;51.000;5.874;2023-04-09T10:11:23;13.60;99.90
11532;DHT22;5822;51.000;5.874;2023-04-09T10:13:58;13.60;99.90
11532;DHT22;5822;51.000;5.874;2023-04-09T10:16:28;13.70;99.90
11532;DHT22;5822;51.000;5.874;2023-04-09T10:18:58;13.70;99.90
11532;DHT22;5822;51.000;5.874;2023-04-09T10:21:44;13.80;99.90
11532;DHT22;5822;51.000;5.874;2023-04-09T10:24:10;13.80;99.90
11532;DHT22;5822;51.000;5.874;2023-04-09T10:26:39;13.90;99.90
11532;DHT22;5822;51.000;5.874;2023-04-09T10:29:11;14.00;99.90
11532;DHT22;5822;51.000;5.874;2023-04-09T10:31:45;14.00;99.90
11532;DHT22;5822;51.000;5.874;2023-04-09T10:34:15;14.00;99.90
11532;DHT22;5822;51.000;5.874;2023-04-09T10:36:44;14.10;99.90
11532;DHT22;5822;51.000;5.874;2023-04-09T10:39:11;14.10;99.90
11532;DHT22;5822;51.000;5.874;2023-04-09T10:41:39;14.10;99.90
11532;DHT22;5822;51.000;5.874;2023-04-09T10:44:06;14.20;99.90
11532;DHT22;5822;51.000;5.874;2023-04-09T10:46:44;14.20;99.90
11532;DHT22;5822;51.000;5.874;2023-04-09T10:49:18;14.20;99.90
11532;DHT22;5822;51.000;5.874;2023-04-09T10:52:05;14.20;99.90
11532;DHT22;5822;51.000;5.874;2023-04-09T10:59:50;14.20;99.90
11532;DHT22;5822;51.000;5.874;2023-04-09T11:07:40;14.20;99.90
11532;DHT22;5822;51.000;5.874;2023-04-09T11:10:08;14.30;99.90
11532;DHT22;5822;51.000;5.874;2023-04-09T11:12:34;14.30;99.90
11532;DHT22;5822;51.000;5.874;2023-04-09T11:14:59;14.30;99.90
11532;DHT22;5822;51.000;5.874;2023-04-09T11:17:25;14.40;99.90
11532;DHT22;5822;51.000;5.874;2023-04-09T11:19:51;14.40;99.90
11532;DHT22;5822;51.000;5.874;2023-04-09T11:22:17;14.40;99.90
11532;DHT22;5822;51.000;5.874;2023-04-09T11:24:44;14.50;99.90
11532;DHT22;5822;51.000;5.874;2023-04-09T11:27:15;14.50;99.90
11532;DHT22;5822;51.000;5.874;2023-04-09T11:29:43;14.50;99.90
11532;DHT22;5822;51.000;5.874;2023-04-09T11:32:11;14.50;99.90
11532;DHT22;5822;51.000;5.874;2023-04-09T11:34:36;14.50;99.90
11532;DHT22;5822;51.000;5.874;2023-04-09T11:37:03;14.50;99.90
11532;DHT22;5822;51.000;5.874;2023-04-09T11:39:35;14.60;99.90
11532;DHT22;5822;51.000;5.874;2023-04-09T11:42:01;14.60;99.90
11532;DHT22;5822;51.000;5.874;2023-04-09T11:44:27;14.60;99.90
11532;DHT22;5822;51.000;5.874;2023-04-09T11:46:53;14.70;99.90
11532;DHT22;5822;51.000;5.874;2023-04-09T11:49:19;14.70;99.90
11532;DHT22;5822;51.000;5.874;2023-04-09T11:51:45;14.70;99.90
11532;DHT22;5822;51.000;5.874;2023-04-09T11:54:11;14.70;99.90
11532;DHT22;5822;51.000;5.874;2023-04-09T11:56:37;14.80;99.90
11532;DHT22;5822;51.000;5.874;2023-04-09T11:59:02;14.80;99.90
11532;DHT22;5822;51.000;5.874;2023-04-09T12:01:32;14.80;99.90
11532;DHT22;5822;51.000;5.874;2023-04-09T12:03:58;14.80;99.90
11532;DHT22;5822;51.000;5.874;2023-04-09T12:06:25;14.80;99.90
11532;DHT22;5822;51.000;5.874;2023-04-09T12:08:58;14.80;99.90
11532;DHT22;5822;51.000;5.874;2023-04-09T12:11:28;14.90;99.90
11532;DHT22;5822;51.000;5.874;2023-04-09T12:14:06;14.90;99.90
11532;DHT22;5822;51.000;5.874;2023-04-09T12:16:33;14.90;99.90
11532;DHT22;5822;51.000;5.874;2023-04-09T12:19:05;15.00;99.90
11532;DHT22;5822;51.000;5.874;2023-04-09T12:21:50;15.00;99.90
11532;DHT22;5822;51.000;5.874;2023-04-09T12:24:18;15.00;99.90
11532;DHT22;5822;51.000;5.874;2023-04-09T12:26:45;15.00;99.90
11532;DHT22;5822;51.000;5.874;2023-04-09T12:29:13;15.00;99.90
11532;DHT22;5822;51.000;5.874;2023-04-09T12:31:40;15.00;99.90
11532;DHT22;5822;51.000;5.874;2023-04-09T12:34:06;15.00;99.90
11532;DHT22;5822;51.000;5.874;2023-04-09T12:36:31;15.00;99.90
11532;DHT22;5822;51.000;5.874;2023-04-09T12:38:57;14.90;99.90
11532;DHT22;5822;51.000;5.874;2023-04-09T12:41:23;14.90;99.90
11532;DHT22;5822;51.000;5.874;2023-04-09T12:43:49;15.00;99.90
11532;DHT22;5822;51.000;5.874;2023-04-09T12:46:16;15.00;99.90
11532;DHT22;5822;51.000;5.874;2023-04-09T12:48:42;15.00;99.90
11532;DHT22;5822;51.000;5.874;2023-04-09T12:51:07;15.10;99.90
11532;DHT22;5822;51.000;5.874;2023-04-09T12:53:35;15.10;99.90
11532;DHT22;5822;51.000;5.874;2023-04-09T12:56:01;15.10;99.90
11532;DHT22;5822;51.000;5.874;2023-04-09T12:58:27;15.10;99.90
11532;DHT22;5822;51.000;5.874;2023-04-09T13:00:53;15.10;99.90
11532;DHT22;5822;51.000;5.874;2023-04-09T13:03:19;15.20;99.90
11532;DHT22;5822;51.000;5.874;2023-04-09T13:05:45;15.20;99.90
11532;DHT22;5822;51.000;5.874;2023-04-09T13:08:11;15.20;99.90
11532;DHT22;5822;51.000;5.874;2023-04-09T13:10:38;15.20;99.90
11532;DHT22;5822;51.000;5.874;2023-04-09T13:13:03;15.20;99.90
11532;DHT22;5822;51.000;5.874;2023-04-09T13:15:29;15.20;99.90
11532;DHT22;5822;51.000;5.874;2023-04-09T13:17:55;15.20;99.90
11532;DHT22;5822;51.000;5.874;2023-04-09T13:20:21;15.20;99.90
11532;DHT22;5822;51.000;5.874;2023-04-09T13:22:47;15.30;99.90
11532;DHT22;5822;51.000;5.874;2023-04-09T13:25:16;15.30;99.90
11532;DHT22;5822;51.000;5.874;2023-04-09T13:27:42;15.30;99.90
11532;DHT22;5822;51.000;5.874;2023-04-09T13:30:08;15.30;99.90
11532;DHT22;5822;51.000;5.874;2023-04-09T13:32:33;15.40;99.90
11532;DHT22;5822;51.000;5.874;2023-04-09T13:34:59;15.50;99.90
11532;DHT22;5822;51.000;5.874;2023-04-09T13:37:25;15.60;99.90
11532;DHT22;5822;51.000;5.874;2023-04-09T13:39:51;15.70;99.90
11532;DHT22;5822;51.000;5.874;2023-04-09T13:42:17;15.70;99.90
11532;DHT22;5822;51.000;5.874;2023-04-09T13:44:43;15.80;99.90
11532;DHT22;5822;51.000;5.874;2023-04-09T13:47:14;15.90;99.90
11532;DHT22;5822;51.000;5.874;2023-04-09T13:49:41;16.00;99.90
11532;DHT22;5822;51.000;5.874;2023-04-09T13:52:07;15.80;99.90
11532;DHT22;5822;51.000;5.874;2023-04-09T13:54:33;15.80;99.90
11532;DHT22;5822;51.000;5.874;2023-04-09T13:57:00;15.80;99.90
11532;DHT22;5822;51.000;5.874;2023-04-09T13:59:25;15.70;99.90
11532;DHT22;5822;51.000;5.874;2023-04-09T14:01:51;15.80;99.90
11532;DHT22;5822;51.000;5.874;2023-04-09T14:04:17;15.70;99.90
11532;DHT22;5822;51.000;5.874;2023-04-09T14:06:44;15.60;99.90
11532;DHT22;5822;51.000;5.874;2023-04-09T14:09:10;15.70;99.90
11532;DHT22;5822;51.000;5.874;2023-04-09T14:11:36;15.70;99.90
11532;DHT22;5822;51.000;5.874;2023-04-09T14:14:01;15.70;99.90
11532;DHT22;5822;51.000;5.874;2023-04-09T14:16:30;15.80;99.90
11532;DHT22;5822;51.000;5.874;2023-04-09T14:18:56;15.90;99.90
11532;DHT22;5822;51.000;5.874;2023-04-09T14:21:22;15.90;99.90
11532;DHT22;5822;51.000;5.874;2023-04-09T14:23:48;15.90;99.90
11532;DHT22;5822;51.000;5.874;2023-04-09T14:26:14;15.80;99.90
11532;DHT22;5822;51.000;5.874;2023-04-09T14:28:40;15.90;99.90
11532;DHT22;5822;51.000;5.874;2023-04-09T14:31:07;16.10;99.90
11532;DHT22;5822;51.000;5.874;2023-04-09T14:33:33;16.00;99.90
11532;DHT22;5822;51.000;5.874;2023-04-09T14:35:59;16.10;99.90
11532;DHT22;5822;51.000;5.874;2023-04-09T14:38:25;16.20;99.90
11532;DHT22;5822;51.000;5.874;2023-04-09T14:40:51;16.30;99.90
11532;DHT22;5822;51.000;5.874;2023-04-09T14:43:16;16.30;99.90
11532;DHT22;5822;51.000;5.874;2023-04-09T14:45:42;16.40;99.90
11532;DHT22;5822;51.000;5.874;2023-04-09T14:48:08;16.50;99.90
11532;DHT22;5822;51.000;5.874;2023-04-09T14:50:34;16.60;99.90
11532;DHT22;5822;51.000;5.874;2023-04-09T14:53:01;16.70;99.90
11532;DHT22;5822;51.000;5.874;2023-04-09T14:55:27;16.60;99.90
11532;DHT22;5822;51.000;5.874;2023-04-09T14:57:53;16.40;99.90
11532;DHT22;5822;51.000;5.874;2023-04-09T15:00:19;16.40;99.90
11532;DHT22;5822;51.000;5.874;2023-04-09T15:02:45;16.30;99.90
11532;DHT22;5822;51.000;5.874;2023-04-09T15:05:11;16.30;99.90
11532;DHT22;5822;51.000;5.874;2023-04-09T15:07:37;16.20;99.90
11532;DHT22;5822;51.000;5.874;2023-04-09T15:10:03;16.20;99.90
11532;DHT22;5822;51.000;5.874;2023-04-09T15:12:30;16.30;99.90
11532;DHT22;5822;51.000;5.874;2023-04-09T15:14:55;16.20;99.90
11532;DHT22;5822;51.000;5.874;2023-04-09T15:17:22;16.20;99.90
11532;DHT22;5822;51.000;5.874;2023-04-09T15:19:48;16.30;99.90
11532;DHT22;5822;51.000;5.874;2023-04-09T15:22:14;16.30;99.90
11532;DHT22;5822;51.000;5.874;2023-04-09T15:24:39;16.30;99.90
11532;DHT22;5822;51.000;5.874;2023-04-09T15:27:05;16.20;99.90
11532;DHT22;5822;51.000;5.874;2023-04-09T15:29:32;16.20;99.90
11532;DHT22;5822;51.000;5.874;2023-04-09T15:31:57;16.10;99.90
11532;DHT22;5822;51.000;5.874;2023-04-09T15:34:23;16.10;99.90
11532;DHT22;5822;51.000;5.874;2023-04-09T15:36:50;16.20;99.90
11532;DHT22;5822;51.000;5.874;2023-04-09T15:39:16;16.10;99.90
11532;DHT22;5822;51.000;5.874;2023-04-09T15:41:43;16.10;99.90
11532;DHT22;5822;51.000;5.874;2023-04-09T15:44:08;16.10;99.90
11532;DHT22;5822;51.000;5.874;2023-04-09T15:46:36;16.10;99.90
11532;DHT22;5822;51.000;5.874;2023-04-09T15:49:02;16.00;99.90
11532;DHT22;5822;51.000;5.874;2023-04-09T15:51:27;15.90;99.90
11532;DHT22;5822;51.000;5.874;2023-04-09T15:53:53;15.90;99.90
11532;DHT22;5822;51.000;5.874;2023-04-09T15:56:18;16.00;99.90
11532;DHT22;5822;51.000;5.874;2023-04-09T15:58:44;15.90;99.90
11532;DHT22;5822;51.000;5.874;2023-04-09T16:01:11;15.90;99.90
11532;DHT22;5822;51.000;5.874;2023-04-09T16:03:37;15.90;99.90